TimeCAT,TemperatureF,Dew PointF,Humidity,Sea Level PressureIn,VisibilityMPH,Wind Direction,Wind SpeedMPH,Gust SpeedMPH,PrecipitationIn,Events,Conditions,WindDirDegrees,DateUTC
12:00 AM,71.6,66.2,83,29.86,-9999.0,ENE,4.6,-,N/A,,Clear,70,2014-01-07 22:00:00
1:00 AM,71.6,66.2,83,29.86,-9999.0,Variable,1.2,-,N/A,,Clear,0,2014-01-07 23:00:00
2:00 AM,69,66,87,,6,WNW,1.2,,,,Partly Cloudy,300,2014-01-08 00:00:00
2:00 AM,69.8,66.2,88,29.86,-9999.0,Variable,1.2,-,N/A,,Clear,0,2014-01-08 00:00:00
3:00 AM,68.0,66.2,94,29.86,-9999.0,Variable,2.3,-,N/A,,Clear,0,2014-01-08 01:00:00
5:00 AM,68,65,87,,6,North,1.2,,,,Partly Cloudy,0,2014-01-08 03:00:00
5:00 AM,68.0,64.4,88,29.86,-9999.0,Variable,1.2,-,N/A,,Clear,0,2014-01-08 03:00:00
6:00 AM,66.2,64.4,94,29.89,-9999.0,Variable,1.2,-,N/A,,Clear,0,2014-01-08 04:00:00
7:00 AM,71.6,66.2,83,29.89,-9999.0,Calm,Calm,-,N/A,,Clear,0,2014-01-08 05:00:00
8:00 AM,75.2,68.0,78,29.89,-9999.0,Variable,2.3,-,N/A,,Clear,0,2014-01-08 06:00:00
9:00 AM,80.6,66.2,61,29.92,-9999.0,NNE,3.5,-,N/A,,Clear,20,2014-01-08 07:00:00
10:00 AM,86.0,59.0,40,29.92,-9999.0,NNE,4.6,-,N/A,,Clear,20,2014-01-08 08:00:00
11:00 AM,87.8,53.6,31,29.92,-9999.0,NNE,5.8,-,N/A,,Clear,30,2014-01-08 09:00:00
12:00 PM,89.6,55.4,31,29.89,6.2,South,3.5,-,N/A,,Partly Cloudy,180,2014-01-08 10:00:00
2:00 PM,91.4,51.8,26,29.86,6.2,NNE,5.8,-,N/A,,Unknown,20,2014-01-08 12:00:00
3:00 PM,91.4,55.4,29,29.86,6.2,NW,8.1,-,N/A,,Scattered Clouds,320,2014-01-08 13:00:00
4:00 PM,93.2,55.4,28,29.83,6.2,North,5.8,-,N/A,,Scattered Clouds,360,2014-01-08 14:00:00
6:00 PM,91.4,53.6,28,29.83,6.2,NW,5.8,-,N/A,,Scattered Clouds,320,2014-01-08 16:00:00
7:00 PM,87.8,55.4,33,29.86,6.2,WNW,3.5,-,N/A,,Partly Cloudy,290,2014-01-08 17:00:00
8:00 PM,82.4,57.2,42,29.86,-9999.0,Calm,Calm,-,N/A,,Clear,0,2014-01-08 18:00:00
10:00 PM,75.2,59.0,57,29.92,-9999.0,Calm,Calm,-,N/A,,Clear,0,2014-01-08 20:00:00
11:00 PM,75.2,62.6,65,29.92,-9999.0,Variable,1.2,-,N/A,,Clear,0,2014-01-08 21:00:00